メインページ
METAR-TAF:

METAR-TAF

空港 :

サスカトゥーン, サスカチュワン州, カナダ

サスカトゥーン・ジョン・G・ディーフェンベーカー国際空港

緯度: 52-10N, 経度: 106-41W, 海抜: 501m

現時点の気象観測

当レポートは31分前の16:00(UTC)に作成
西/北西の風 3kt、西から北/北西の間で変化する
気温 -12°C
湿度 72%
気圧 1013 hPa
視程: 24.1km
高度3500ftの雲は散在している
高度5000ftの曇り

METAR: CYXE 221600Z 29003KT 270V340 15SM SCT035 OVC050 M12/M16 A2992 RMK SC3SC5 SLP180

時間: 10:31 (16:31 UTC)

予報

当レポートは4時間53分前の11:38(UTC)に作成
予報は22日の 12時(UTC)から 23日の 12時(UTC)まで有効
北東の風 5kt
視程: 10km
高度2000ftの雲は散在している
高度6000ftの千切れ雲あり
22日の 12時(UTC)から 22日の 14時(UTC)まで一時的に
視程: 4.8km
高度1500ftの千切れ雲あり
小雪
22日の 1400時(UTC)から
の風 5kt
視程: 10km
高度5000ftの千切れ雲あり
22日の 1800時(UTC)から
西/南西の風 6kt
視程: 10km
高度6000ftの雲は散在している
22日の 20時(UTC)から 22日の 22時(UTC)まで徐々に
の風 6kt
23日の 0200時(UTC)から
南/南東の風 8kt
視程: 10km
高度800ftの雲は散在している
高度6000ftの千切れ雲あり
高度22000ftの千切れ雲あり
23日の 0400時(UTC)から
の風 8kt
視程: 10km
高度600ftの雲は散在している
高度6000ftの千切れ雲あり
高度22000ftの千切れ雲あり
23日の 04時(UTC)から 23日の 12時(UTC)まで一時的に
視程: 6.4km
高度600ftの千切れ雲あり

TAF: CYXE 221138Z 2212/2312 05005KT P6SM SCT020 BKN060 TEMPO 2212/2214 3SM -SN BKN015 FM221400 36005KT P6SM BKN050 FM221800 24006KT P6SM SCT060 BECMG 2220/2222 18006KT FM230200 16008KT P6SM SCT008 BKN060 BKN220 FM230400 10008KT P6SM SCT006 BKN060 BKN220 TEMPO 2304/2312 4SM BR BKN006 RMK NXT FCST BY 221800Z

4,000以上の空港の気象観測と天気予報(METAR報とTAF報)

利用可能な観測所は地図上に黄色い丸と赤い丸で示す。

丸の上にカーソルを重ねると観測所名を参照できる。

次にクリックすると気象観測と天気予報を参照できる。

マップの切り替え:黒色「×」印の緑ボタンをクリックして拡大、「-」印の緑ボタンをクリックして縮小、緑色の三角印をクリックして隣りの地図に切り替え


METAR-TAF: